Terminal Aerodrome Forecast
Issued by NWS

Home | Current Version | Previous Version | Text Only | Print | Product List | Glossary On
Versions: 1 2 3 4 5 6 7 8 9 10 11 12 13
259
FTUS46 KMTR 240539
TAFSTS
TAF
KSTS 240539Z 2406/2506 16006KT P6SM BKN006
     FM240800 VRB03KT 6SM BR OVC005
     FM241200 00000KT 1SM BR OVC002
     FM241600 VRB03KT 4SM BR BKN005
     FM241700 19004KT P6SM SKC
     FM242000 17011KT P6SM SCT180
     FM250400 16007KT P6SM SCT006=

USA.gov is the U.S. government's official web portal to all federal, state and local government web resources and services.